Time;durP1;ratioP1;P1;durP2;ratioP2;P2;SDS_P1;SDS_P2;PMS_P1;PMS_P2;Temp;Humidity;BMP_temperature;BMP_pressure;BME280_temperature;BME280_humidity;BME280_pressure;Samples;Min_cycle;Max_cycle;Signal;HPM_P1;HPM_P2
2022/10/26 00:00:21;;;;;;;25.30;13.73;;;;;;;13.57;94.72;100537.48;124086;1102;104179;-75
2022/10/26 00:03:12;;;;;;;21.53;12.00;;;;;;;13.54;94.67;100534.78;124126;1102;104210;-75
2022/10/26 00:05:43;;;;;;;23.20;13.73;;;;;;;13.51;95.05;100546.97;124166;1101;102300;-75
2022/10/26 00:08:15;;;;;;;24.60;12.97;;;;;;;13.50;94.09;100545.21;124079;1102;104224;-76
2022/10/26 00:10:46;;;;;;;21.33;12.30;;;;;;;13.48;94.48;100555.72;124123;1101;102855;-75
2022/10/26 00:13:17;;;;;;;22.57;12.33;;;;;;;13.48;94.89;100553.08;124075;1102;104849;-75
2022/10/26 00:15:48;;;;;;;22.87;12.43;;;;;;;13.47;94.56;100564.47;124173;1102;102860;-75
2022/10/26 00:18:19;;;;;;;21.07;12.53;;;;;;;13.41;94.33;100543.22;124165;1102;102835;-75
2022/10/26 00:20:50;;;;;;;21.57;12.23;;;;;;;13.45;94.65;100559.16;124110;1102;102846;-76
2022/10/26 00:23:21;;;;;;;21.37;11.37;;;;;;;13.46;94.97;100557.39;124103;1102;104173;-76
2022/10/26 00:25:59;;;;;;;21.63;11.30;;;;;;;13.47;95.06;100562.70;124151;1102;104224;-75
2022/10/26 00:28:31;;;;;;;19.90;10.27;;;;;;;13.46;94.61;100563.59;124098;1102;104176;-75
2022/10/26 00:31:05;;;;;;;20.93;10.50;;;;;;;13.46;94.13;100571.49;124080;1101;104245;-75
2022/10/26 00:33:36;;;;;;;17.83;10.47;;;;;;;13.45;94.69;100566.18;124081;1102;104281;-75
2022/10/26 00:36:09;;;;;;;21.10;10.60;;;;;;;13.44;94.87;100573.17;124172;1102;104172;-75
2022/10/26 00:38:44;;;;;;;18.00;9.40;;;;;;;13.43;94.36;100568.78;124156;1102;104245;-75
2022/10/26 00:41:18;;;;;;;16.60;8.43;;;;;;;13.42;94.63;100572.26;124126;1102;102795;-75
2022/10/26 00:43:48;;;;;;;;;;;;;;;13.40;94.22;100579.24;124161;1102;103679;-76
2022/10/26 00:46:22;;;;;;;17.63;9.90;;;;;;;13.38;94.13;100578.29;124165;1102;104297;-76
2022/10/26 00:48:59;;;;;;;19.77;9.93;;;;;;;13.36;94.09;100574.73;124085;1102;102841;-76
2022/10/26 00:51:36;;;;;;;17.73;9.80;;;;;;;13.33;94.11;100568.47;124112;1102;104188;-75
2022/10/26 00:54:11;;;;;;;16.60;9.47;;;;;;;13.29;93.81;100565.76;124193;1102;105488;-75
2022/10/26 00:56:42;;;;;;;19.13;9.80;;;;;;;13.25;94.21;100568.27;124130;1102;101931;-75
2022/10/26 00:59:16;;;;;;;17.57;9.23;;;;;;;13.20;94.64;100564.60;124167;1101;104678;-75
2022/10/26 01:01:49;;;;;;;17.67;10.08;;;;;;;13.13;93.85;100571.47;124156;1102;104169;-76
2022/10/26 01:04:20;;;;;;;18.15;9.60;;;;;;;13.09;94.07;100566.98;124151;1102;104201;-75
2022/10/26 01:06:52;;;;;;;19.17;9.40;;;;;;;13.06;93.87;100566.91;124106;1102;104242;-75
2022/10/26 01:09:23;;;;;;;18.07;9.57;;;;;;;13.00;94.35;100558.84;124100;1102;103957;-75
2022/10/26 01:11:54;;;;;;;19.40;9.77;;;;;;;12.95;93.66;100561.34;124193;1102;103066;-75
2022/10/26 01:14:27;;;;;;;18.75;10.10;;;;;;;12.91;94.15;100557.72;124089;1102;104165;-76
2022/10/26 01:17:05;;;;;;;18.83;9.67;;;;;;;12.86;93.80;100556.71;124070;1102;104249;-75
2022/10/26 01:20:09;;;;;;;17.53;9.57;;;;;;;12.82;93.86;100557.47;124092;1101;104176;-75
2022/10/26 01:22:46;;;;;;;17.05;9.60;;;;;;;12.77;94.01;100551.19;123888;1102;104422;-76
2022/10/26 01:25:33;;;;;;;17.87;9.70;;;;;;;12.75;94.27;100552.91;124103;1102;104295;-75
2022/10/26 01:28:16;;;;;;;17.70;9.10;;;;;;;12.71;94.11;100558.92;124102;1102;104317;-75
2022/10/26 01:30:48;;;;;;;18.07;9.10;;;;;;;12.66;93.98;100552.64;124084;1102;104136;-75
2022/10/26 01:33:31;;;;;;;21.63;9.77;;;;;;;12.64;94.47;100549.09;124083;1102;104211;-76
2022/10/26 01:36:16;;;;;;;18.37;9.70;;;;;;;12.59;93.98;100547.20;124104;1102;104179;-75
2022/10/26 01:38:56;;;;;;;19.30;10.00;;;;;;;12.58;93.96;100539.27;124135;1102;104182;-75
2022/10/26 01:41:31;;;;;;;17.93;10.23;;;;;;;12.55;94.17;100541.81;124054;1102;104246;-76
2022/10/26 01:44:07;;;;;;;19.30;10.30;;;;;;;12.52;94.16;100546.98;123997;1103;104111;-75
2022/10/26 01:46:41;;;;;;;19.13;9.83;;;;;;;12.49;94.16;100552.16;124091;1102;110613;-75
2022/10/26 01:49:15;;;;;;;18.17;9.40;;;;;;;12.46;94.15;100555.59;124150;1102;104327;-75
2022/10/26 01:51:48;;;;;;;20.13;10.30;;;;;;;12.43;94.60;100557.25;124121;1102;104734;-75
2022/10/26 01:54:19;;;;;;;19.00;10.05;;;;;;;12.40;94.40;100563.30;124058;1102;104317;-75
2022/10/26 01:56:54;;;;;;;18.20;9.77;;;;;;;12.37;94.58;100568.47;124058;1102;104248;-76
2022/10/26 01:59:46;;;;;;;18.97;10.03;;;;;;;12.32;94.06;100565.70;124169;1102;104739;-76
2022/10/26 02:02:47;;;;;;;22.00;10.77;;;;;;;12.31;94.43;100570.92;124143;1102;104238;-75
2022/10/26 02:05:31;;;;;;;20.50;11.30;;;;;;;12.28;93.96;100562.94;124105;1102;103058;-75
2022/10/26 02:08:20;;;;;;;18.15;10.35;;;;;;;12.27;93.81;100567.31;124154;1102;104182;-75
2022/10/26 02:11:02;;;;;;;18.10;10.23;;;;;;;12.25;94.54;100563.76;124087;1102;104130;-75
2022/10/26 02:13:42;;;;;;;17.43;9.83;;;;;;;12.20;94.28;100568.88;124099;1102;104231;-75
2022/10/26 02:16:21;;;;;;;20.03;10.33;;;;;;;12.18;94.07;100567.92;124139;1102;104259;-76
2022/10/26 02:19:01;;;;;;;17.73;10.13;;;;;;;12.14;94.00;100575.67;124194;1102;102648;-76
2022/10/26 02:21:38;;;;;;;19.07;10.43;;;;;;;12.08;93.88;100572.89;124086;1102;104356;-75
2022/10/26 02:24:14;;;;;;;19.97;11.13;;;;;;;12.03;94.26;100567.48;124214;1102;104322;-75
2022/10/26 02:26:48;;;;;;;19.03;9.93;;;;;;;12.01;94.29;100577.05;124119;1102;104252;-75
2022/10/26 02:29:23;;;;;;;19.47;9.83;;;;;;;11.96;94.47;100566.37;124084;1102;102276;-75
2022/10/26 02:31:54;;;;;;;23.33;10.60;;;;;;;11.93;94.50;100570.66;124112;1102;102849;-75
2022/10/26 02:34:28;;;;;;;19.10;10.00;;;;;;;11.91;94.63;100577.59;124090;1102;103366;-75
2022/10/26 02:37:02;;;;;;;17.40;9.90;;;;;;;11.87;94.49;100580.12;124176;1102;104172;-74
2022/10/26 02:39:36;;;;;;;17.57;9.73;;;;;;;11.87;94.49;100589.72;124116;1102;102857;-75
2022/10/26 02:42:09;;;;;;;18.82;9.90;;;;;;;11.86;94.56;100596.72;124139;1102;104235;-75
2022/10/26 02:44:46;;;;;;;16.60;9.10;;;;;;;11.86;94.37;100595.84;124095;1102;104179;-75
2022/10/26 02:47:18;;;;;;;18.93;9.73;;;;;;;11.85;94.97;100597.56;124096;1102;102255;-75
2022/10/26 02:49:49;;;;;;;21.07;10.67;;;;;;;11.85;94.40;100604.56;124135;1102;104249;-75
2022/10/26 02:52:28;;;;;;;20.00;11.20;;;;;;;11.84;94.48;100593.16;124207;1102;104185;-75
2022/10/26 02:55:04;;;;;;;19.10;10.03;;;;;;;11.85;94.75;100609.83;124069;1102;104162;-75
2022/10/26 02:57:39;;;;;;;19.47;9.97;;;;;;;11.85;94.61;100605.45;124103;1102;104166;-75
2022/10/26 03:00:14;;;;;;;19.43;10.30;;;;;;;11.85;94.51;100605.45;124111;1102;104166;-75
2022/10/26 03:02:51;;;;;;;19.10;10.27;;;;;;;11.88;94.51;100612.55;124101;1102;104251;-75
2022/10/26 03:05:25;;;;;;;18.27;9.37;;;;;;;11.91;94.84;100607.39;124094;1101;104341;-75
2022/10/26 03:07:55;;;;;;;;;;;;;;;11.91;94.98;100612.65;124122;1102;102841;-75
2022/10/26 03:10:27;;;;;;;18.93;10.00;;;;;;;11.93;94.88;100613.62;124186;1102;104345;-76
2022/10/26 03:12:58;;;;;;;17.67;9.97;;;;;;;11.96;94.99;100618.09;124098;1102;102880;-75
2022/10/26 03:15:29;;;;;;;20.30;11.00;;;;;;;12.00;94.81;100619.98;124119;1102;104236;-75
2022/10/26 03:18:00;;;;;;;22.80;11.03;;;;;;;12.04;95.34;100629.73;124080;1102;104271;-75
2022/10/26 03:20:31;;;;;;;21.77;10.83;;;;;;;12.06;94.93;100635.96;124194;1101;104273;-75
2022/10/26 03:23:02;;;;;;;20.03;11.03;;;;;;;12.09;95.08;100638.69;124122;1102;102841;-75
2022/10/26 03:25:33;;;;;;;19.13;10.63;;;;;;;12.11;95.48;100630.84;124092;1102;104386;-75
2022/10/26 03:28:06;;;;;;;20.47;11.50;;;;;;;12.13;95.04;100630.03;124179;1102;104169;-75
2022/10/26 03:30:37;;;;;;;20.10;10.90;;;;;;;12.15;95.14;100632.71;124075;1102;104176;-75
2022/10/26 03:33:08;;;;;;;20.00;11.50;;;;;;;12.16;94.89;100638.02;124122;1102;104355;-75
2022/10/26 03:35:39;;;;;;;20.93;11.27;;;;;;;12.18;95.06;100636.31;124140;1102;104274;-75
2022/10/26 03:38:10;;;;;;;20.10;11.27;;;;;;;12.20;95.14;100633.73;124086;1102;104223;-75
2022/10/26 03:40:42;;;;;;;21.27;11.60;;;;;;;12.22;95.06;100635.58;124112;1102;104191;-75
2022/10/26 03:43:13;;;;;;;22.30;11.90;;;;;;;12.24;95.52;100638.26;124159;1102;104197;-75
2022/10/26 03:45:44;;;;;;;22.57;12.60;;;;;;;12.25;95.24;100636.52;124122;1102;104274;-75
2022/10/26 03:48:15;;;;;;;20.97;11.17;;;;;;;12.25;95.42;100637.42;124077;1102;104268;-75
2022/10/26 03:50:46;;;;;;;23.43;12.63;;;;;;;12.27;95.22;100642.73;124085;1102;104224;-75
2022/10/26 03:53:17;;;;;;;21.13;12.20;;;;;;;12.27;95.64;100651.51;124067;1102;102875;-75
2022/10/26 03:55:49;;;;;;;21.43;11.47;;;;;;;12.28;95.67;100655.02;124114;1102;102867;-75
2022/10/26 03:58:20;;;;;;;22.80;12.03;;;;;;;12.28;95.58;100657.66;124158;1102;104268;-76
2022/10/26 04:00:51;;;;;;;21.93;12.33;;;;;;;12.29;95.92;100659.45;124139;1102;102870;-75
2022/10/26 04:03:22;;;;;;;23.43;13.30;;;;;;;12.31;96.51;100647.22;124086;1102;104242;-74
2022/10/26 04:05:53;;;;;;;24.77;14.90;;;;;;;12.35;96.61;100647.37;124140;1102;104063;-74
2022/10/26 04:08:24;;;;;;;27.20;15.33;;;;;;;12.38;96.94;100651.84;124146;1102;104280;-74
2022/10/26 04:10:55;;;;;;;26.00;15.27;;;;;;;12.40;96.87;100653.69;124160;1101;102241;-74
2022/10/26 04:13:26;;;;;;;29.67;17.60;;;;;;;12.42;96.70;100659.00;124097;1102;104208;-74
2022/10/26 04:15:57;;;;;;;29.33;17.43;;;;;;;12.46;96.75;100658.23;124077;1102;102526;-74
2022/10/26 04:18:28;;;;;;;32.40;18.03;;;;;;;12.49;96.90;100655.69;124169;1102;104217;-74
2022/10/26 04:21:02;;;;;;;29.20;18.37;;;;;;;12.51;96.22;100661.00;124129;1102;104198;-74
2022/10/26 04:23:33;;;;;;;30.15;18.67;;;;;;;12.54;96.85;100659.38;124065;1102;104277;-74
2022/10/26 04:26:06;;;;;;;29.90;18.77;;;;;;;12.57;96.52;100646.30;124112;1102;102630;-74
2022/10/26 04:28:37;;;;;;;36.57;20.63;;;;;;;12.59;96.37;100647.23;124015;1102;104364;-75
2022/10/26 04:31:08;;;;;;;32.67;20.03;;;;;;;12.62;96.60;100645.53;124088;1102;104278;-74
2022/10/26 04:33:39;;;;;;;35.77;21.50;;;;;;;12.63;96.82;100645.58;124052;1102;104229;-74
2022/10/26 04:36:11;;;;;;;33.60;20.33;;;;;;;12.65;96.23;100642.98;124149;1102;104248;-74
2022/10/26 04:38:42;;;;;;;35.40;21.23;;;;;;;12.67;96.74;100644.83;124169;1102;104338;-75
2022/10/26 04:41:13;;;;;;;36.83;21.03;;;;;;;12.70;96.95;100652.82;124171;1102;104173;-75
2022/10/26 04:43:44;;;;;;;33.10;21.60;;;;;;;12.73;96.84;100652.91;124125;1102;102829;-75
2022/10/26 04:46:15;;;;;;;35.97;20.63;;;;;;;12.76;96.67;100659.98;124125;1102;104185;-74
2022/10/26 04:48:47;;;;;;;33.87;20.60;;;;;;;12.78;96.62;100650.41;124148;1102;104176;-75
2022/10/26 04:51:18;;;;;;;35.10;21.10;;;;;;;12.79;96.18;100656.56;124107;1102;104281;-75
2022/10/26 04:53:50;;;;;;;33.57;20.17;;;;;;;12.81;96.42;100663.67;124052;1102;104393;-75
2022/10/26 04:56:21;;;;;;;33.90;21.70;;;;;;;12.83;96.34;100664.59;124111;1102;104141;-74
2022/10/26 04:58:55;;;;;;;35.10;21.47;;;;;;;12.84;96.59;100666.39;124068;1102;104169;-75
2022/10/26 05:01:26;;;;;;;35.73;21.50;;;;;;;12.87;96.47;100669.11;124142;1102;102034;-75
2022/10/26 05:03:57;;;;;;;34.43;21.40;;;;;;;12.89;96.37;100672.67;124243;1102;104242;-75
2022/10/26 05:06:29;;;;;;;36.50;22.90;;;;;;;12.92;96.41;100669.25;125539;1101;104256;-75
2022/10/26 05:09:00;;;;;;;37.97;22.30;;;;;;;12.94;96.24;100676.33;123983;1104;102882;-74
2022/10/26 05:11:31;;;;;;;35.90;21.00;;;;;;;12.98;96.45;100677.33;124094;1102;104274;-74
2022/10/26 05:14:02;;;;;;;34.93;21.30;;;;;;;13.03;96.37;100672.19;124201;1102;102976;-74
2022/10/26 05:16:33;;;;;;;36.50;21.27;;;;;;;13.09;96.85;100672.36;124147;1102;104244;-75
2022/10/26 05:19:04;;;;;;;34.73;21.63;;;;;;;13.15;96.24;100676.89;124061;1102;104173;-74
2022/10/26 05:21:36;;;;;;;33.73;20.60;;;;;;;13.20;96.70;100673.55;124180;1102;102859;-74
2022/10/26 05:24:08;;;;;;;33.00;20.73;;;;;;;13.23;96.78;100676.27;124144;1102;104169;-74
2022/10/26 05:26:39;;;;;;;33.90;19.37;;;;;;;13.27;96.64;100675.48;124178;1102;104169;-74
2022/10/26 05:29:10;;;;;;;32.83;19.57;;;;;;;13.31;96.72;100689.66;124148;1102;104245;-74
2022/10/26 05:31:41;;;;;;;34.90;20.17;;;;;;;13.35;96.98;100688.02;123970;1102;104245;-75
2022/10/26 05:34:14;;;;;;;31.87;19.23;;;;;;;13.40;96.46;100692.58;124324;1102;104652;-75
2022/10/26 05:36:45;;;;;;;31.70;19.17;;;;;;;13.43;96.84;100699.66;124044;1102;102309;-75
2022/10/26 05:39:16;;;;;;;29.67;17.67;;;;;;;13.47;96.71;100701.53;124064;1102;104270;-75
2022/10/26 05:41:47;;;;;;;32.63;19.47;;;;;;;13.50;96.98;100709.53;124206;1102;104242;-76
2022/10/26 05:44:18;;;;;;;30.47;17.83;;;;;;;13.51;96.94;100707.77;124129;1102;104315;-75
2022/10/26 05:46:49;;;;;;;29.77;17.87;;;;;;;13.51;96.66;100719.23;124390;1102;102367;-75
2022/10/26 05:49:21;;;;;;;29.73;18.10;;;;;;;13.53;96.71;100716.64;124167;1102;104292;-74
2022/10/26 05:51:52;;;;;;;31.30;18.00;;;;;;;13.54;96.54;100723.67;124103;1102;104198;-75
2022/10/26 05:54:24;;;;;;;30.75;17.75;;;;;;;13.52;96.78;100730.66;124169;1102;102087;-74
2022/10/26 05:57:05;;;;;;;29.90;18.37;;;;;;;13.51;97.05;100726.23;124244;1102;104267;-74
2022/10/26 05:59:41;;;;;;;29.47;18.17;;;;;;;13.47;96.78;100734.05;124051;1102;104175;-75
2022/10/26 06:02:24;;;;;;;30.07;17.47;;;;;;;13.46;96.46;100736.64;124199;1102;104207;-73
2022/10/26 06:05:03;;;;;;;31.60;19.30;;;;;;;13.44;96.17;100740.99;124165;1102;102093;-73
2022/10/26 06:07:36;;;;;;;33.13;20.27;;;;;;;13.42;96.70;100742.70;123984;1105;103654;-76
2022/10/26 06:10:10;;;;;;;32.75;19.60;;;;;;;13.41;96.25;100738.27;124167;1102;104053;-74
2022/10/26 06:12:43;;;;;;;31.40;19.50;;;;;;;13.40;96.27;100749.66;124016;1102;104227;-74
2022/10/26 06:15:21;;;;;;;35.50;20.90;;;;;;;13.39;96.19;100746.14;123974;1102;104660;-75
2022/10/26 06:18:07;;;;;;;34.33;19.73;;;;;;;13.41;96.23;100754.97;124022;1102;104242;-76
2022/10/26 06:20:51;;;;;;;29.70;18.60;;;;;;;13.43;96.73;100760.28;124126;1102;102547;-75
2022/10/26 06:23:45;;;;;;;33.37;17.53;;;;;;;13.42;96.34;100756.77;123995;1102;102316;-75
2022/10/26 06:26:29;;;;;;;31.00;18.97;;;;;;;13.42;96.00;100766.42;124006;1102;102866;-75
2022/10/26 06:29:12;;;;;;;31.13;17.23;;;;;;;13.40;96.10;100771.66;124033;1101;104300;-75
2022/10/26 06:31:44;;;;;;;31.33;18.17;;;;;;;13.39;96.17;100771.61;124032;1103;104291;-75
2022/10/26 06:34:23;;;;;;;33.73;20.23;;;;;;;13.38;96.21;100775.08;124172;1102;104176;-76
2022/10/26 06:36:55;;;;;;;28.87;18.67;;;;;;;13.37;96.67;100779.47;124083;1102;104252;-74
2022/10/26 06:39:28;;;;;;;31.20;18.73;;;;;;;13.37;96.44;100762.74;124010;1102;104245;-75
2022/10/26 06:42:01;;;;;;;32.57;18.47;;;;;;;13.39;95.93;100779.52;123921;1103;102822;-73
2022/10/26 06:44:35;;;;;;;33.83;20.03;;;;;;;13.39;96.38;100784.79;124254;1102;102216;-76
2022/10/26 06:47:12;;;;;;;34.63;19.27;;;;;;;13.41;96.21;100777.81;124066;1106;104643;-76
2022/10/26 06:49:58;;;;;;;35.17;20.67;;;;;;;13.43;96.02;100777.02;124262;1102;104188;-75
2022/10/26 06:52:37;;;;;;;32.10;19.10;;;;;;;13.47;96.06;100772.71;124199;1101;104251;-75
2022/10/26 06:55:15;;;;;;;32.70;19.50;;;;;;;13.49;96.30;100776.27;124683;1098;102969;-77
2022/10/26 06:57:47;;;;;;;31.90;19.90;;;;;;;13.48;95.50;100785.94;124694;1099;104255;-76
2022/10/26 07:00:23;;;;;;;30.13;17.67;;;;;;;13.47;96.21;100791.16;124677;1098;104160;-76
2022/10/26 08:01:40;;;;;;;42.33;21.80;;;;;;;13.73;96.40;100804.17;124955;1102;102289;-75
2022/10/26 08:04:15;;;;;;;45.13;21.40;;;;;;;13.86;95.79;100797.52;125122;1105;102563;-73
2022/10/26 08:06:49;;;;;;;40.83;20.47;;;;;;;14.01;95.92;100800.56;124019;1106;104192;-74
2022/10/26 08:09:22;;;;;;;33.53;18.47;;;;;;;14.14;96.00;100796.49;124042;1102;102818;-73
2022/10/26 08:11:53;;;;;;;36.57;19.90;;;;;;;14.25;95.69;100802.92;124010;1102;104182;-75
2022/10/26 08:14:24;;;;;;;31.97;17.43;;;;;;;14.38;94.84;100807.67;123949;1105;104335;-75
2022/10/26 08:16:55;;;;;;;31.63;16.60;;;;;;;14.48;95.17;100806.14;124075;1102;104220;-74
2022/10/26 08:19:27;;;;;;;34.15;17.35;;;;;;;14.52;94.50;100805.38;124095;1102;104362;-75
2022/10/26 08:21:58;;;;;;;28.77;15.53;;;;;;;14.58;93.82;100804.61;123975;1105;104232;-73
2022/10/26 08:24:31;;;;;;;31.20;14.80;;;;;;;14.62;93.74;100801.23;124662;1102;104241;-74
2022/10/26 08:27:02;;;;;;;29.60;14.77;;;;;;;14.69;93.31;100803.18;124026;1102;104245;-75
2022/10/26 08:29:34;;;;;;;24.93;14.20;;;;;;;14.71;92.13;100801.45;124010;1102;104236;-74
2022/10/26 08:32:05;;;;;;;24.40;13.70;;;;;;;14.80;92.52;100810.45;124086;1105;102131;-76
2022/10/26 08:34:37;;;;;;;23.17;13.00;;;;;;;14.87;93.05;100805.34;124265;1102;104322;-75
2022/10/26 08:37:09;;;;;;;24.30;12.93;;;;;;;15.00;92.77;100817.07;124312;1102;104336;-74
2022/10/26 08:39:43;;;;;;;26.10;13.30;;;;;;;15.07;92.14;100810.20;124331;1099;104261;-74
2022/10/26 08:42:20;;;;;;;23.15;11.90;;;;;;;15.14;91.08;100816.50;124333;1099;103014;-74
2022/10/26 08:44:59;;;;;;;22.30;11.40;;;;;;;15.16;90.63;100818.33;124302;1102;104274;-74
2022/10/26 08:47:36;;;;;;;22.57;11.33;;;;;;;15.25;91.10;100810.61;124394;1099;104303;-74
2022/10/26 08:50:14;;;;;;;24.80;12.30;;;;;;;15.44;91.23;100813.61;125389;1098;102241;-74
2022/10/26 08:52:52;;;;;;;18.07;9.80;;;;;;;15.61;87.75;100816.60;125463;1098;103651;-73
2022/10/26 08:55:29;;;;;;;19.77;9.43;;;;;;;15.73;87.44;100823.91;124331;1099;104345;-74
2022/10/26 08:58:06;;;;;;;17.07;9.57;;;;;;;15.78;87.84;100828.47;124272;1099;104296;-74
2022/10/26 09:00:40;;;;;;;18.47;9.03;;;;;;;15.84;86.76;100843.55;124227;1099;104351;-73
2022/10/26 09:03:17;;;;;;;17.75;9.10;;;;;;;15.84;84.50;100838.27;124243;1099;104172;-72
2022/10/26 09:06:01;;;;;;;21.13;9.27;;;;;;;15.93;84.69;100841.09;124291;1099;104195;-74
2022/10/26 09:08:37;;;;;;;;;;;;;;;15.92;82.41;100846.34;124570;1099;104178;-74
2022/10/26 09:11:19;;;;;;;17.20;9.53;;;;;;;15.89;84.73;100844.52;124411;1099;104316;-75
2022/10/26 09:14:04;;;;;;;17.97;8.70;;;;;;;15.92;84.63;100833.12;124396;1102;119464;-74
2022/10/26 09:16:45;;;;;;;17.23;8.63;;;;;;;16.03;84.11;100849.20;124546;1099;104243;-74
2022/10/26 09:19:37;;;;;;;16.77;7.83;;;;;;;16.09;82.47;100844.03;124419;1102;102344;-74
2022/10/26 09:22:17;;;;;;;13.77;7.13;;;;;;;16.16;82.73;100840.64;124320;1102;102851;-74
2022/10/26 09:24:53;;;;;;;14.00;7.43;;;;;;;16.27;82.88;100848.78;125302;1098;104160;-75
2022/10/26 09:27:27;;;;;;;16.53;8.00;;;;;;;16.38;83.54;100851.59;125148;1102;103764;-74
2022/10/26 09:30:04;;;;;;;14.70;7.87;;;;;;;16.48;80.27;100843.83;124178;1099;102455;-74
2022/10/26 09:32:43;;;;;;;16.10;8.23;;;;;;;16.66;82.06;100859.16;124320;1102;104165;-74
2022/10/26 09:35:22;;;;;;;15.75;7.90;;;;;;;16.83;82.54;100851.48;124237;1102;104173;-74
2022/10/26 09:37:58;;;;;;;11.90;6.90;;;;;;;16.97;80.75;100858.77;124337;1101;102530;-73
2022/10/26 09:40:36;;;;;;;14.03;7.83;;;;;;;17.01;81.82;100855.30;124325;1100;104241;-74
2022/10/26 09:43:14;;;;;;;14.83;7.83;;;;;;;17.01;81.14;100853.53;124223;1102;105024;-74
2022/10/26 09:45:50;;;;;;;17.33;7.50;;;;;;;17.04;81.14;100850.93;124292;1099;104089;-75
2022/10/26 09:48:27;;;;;;;14.03;6.87;;;;;;;16.99;80.52;100854.41;124287;1102;102354;-74
2022/10/26 09:50:59;;;;;;;13.60;7.27;;;;;;;16.97;80.79;100850.81;124340;1099;104345;-74
2022/10/26 09:53:31;;;;;;;11.90;7.27;;;;;;;17.07;80.56;100845.67;124296;1099;104243;-74
2022/10/26 09:56:09;;;;;;;18.03;7.40;;;;;;;17.23;80.11;100844.16;124230;1101;102806;-74
2022/10/26 09:58:46;;;;;;;14.27;6.93;;;;;;;17.43;78.32;100844.39;124227;1100;104278;-74
2022/10/26 10:01:31;;;;;;;12.63;6.50;;;;;;;17.52;78.37;100834.80;124301;1099;104355;-74
2022/10/26 10:04:20;;;;;;;11.50;6.27;;;;;;;17.60;78.35;100847.27;124317;1101;102286;-75
2022/10/26 10:06:52;;;;;;;13.30;5.83;;;;;;;17.68;75.40;100851.78;124316;1102;102544;-74
2022/10/26 10:09:25;;;;;;;12.07;6.10;;;;;;;17.75;76.76;100843.04;124344;1099;102871;-75
2022/10/26 10:11:59;;;;;;;11.07;5.50;;;;;;;17.93;76.38;100842.38;124344;1102;102263;-75
2022/10/26 10:14:33;;;;;;;10.40;5.10;;;;;;;18.03;75.23;100846.92;124353;1099;104185;-75
2022/10/26 10:17:08;;;;;;;12.03;5.70;;;;;;;18.11;75.93;100844.34;124916;1099;104235;-75
2022/10/26 10:19:41;;;;;;;11.70;5.10;;;;;;;18.09;70.86;100849.64;124325;1102;104182;-75
2022/10/26 10:22:21;;;;;;;9.43;5.00;;;;;;;18.03;71.65;100851.32;124369;1102;104293;-74
2022/10/26 10:24:57;;;;;;;11.77;5.40;;;;;;;17.84;73.82;100858.16;125667;1101;104175;-74
2022/10/26 10:27:30;;;;;;;12.40;6.17;;;;;;;17.66;72.22;100858.85;124329;1102;104238;-74
2022/10/26 10:30:28;;;;;;;11.37;5.47;;;;;;;17.55;71.90;100843.67;124291;1100;104165;-74
2022/10/26 10:33:13;;;;;;;10.60;6.20;;;;;;;17.49;72.58;100840.06;124227;1102;103540;-72
2022/10/26 10:35:52;;;;;;;10.43;5.70;;;;;;;17.43;72.05;100838.20;124255;1102;108152;-72
2022/10/26 10:38:23;;;;;;;11.83;6.00;;;;;;;17.49;72.13;100835.64;124356;1102;104227;-73
2022/10/26 10:40:59;;;;;;;10.27;5.80;;;;;;;17.46;71.25;100847.98;124300;1102;103340;-73
2022/10/26 10:43:31;;;;;;;16.00;6.00;;;;;;;17.44;71.81;100834.70;125417;1101;104182;-74
2022/10/26 10:46:02;;;;;;;13.33;6.20;;;;;;;17.46;71.47;100832.95;124247;1101;120123;-72
2022/10/26 10:48:51;;;;;;;13.77;6.17;;;;;;;17.46;71.26;100838.25;124299;1102;102468;-74
2022/10/26 10:51:25;;;;;;;12.87;6.20;;;;;;;17.55;71.83;100842.80;124385;1102;104216;-73
2022/10/26 10:53:55;;;;;;;;;;;;;;;17.57;68.10;100863.15;124298;1102;104166;-73
2022/10/26 10:56:40;;;;;;;11.73;5.87;;;;;;;17.67;69.64;100847.34;124288;1102;104285;-74
2022/10/26 10:59:36;;;;;;;12.37;6.20;;;;;;;17.55;69.50;100838.37;124375;1102;104708;-73
2022/10/26 11:02:34;;;;;;;9.53;5.83;;;;;;;17.47;68.81;100848.00;124321;1102;104227;-73
2022/10/26 11:05:32;;;;;;;14.17;6.83;;;;;;;17.45;70.16;100852.38;124260;1102;104221;-74
2022/10/26 11:08:12;;;;;;;12.88;6.47;;;;;;;17.40;69.27;100848.78;125681;1101;104217;-73
2022/10/26 11:10:51;;;;;;;13.30;6.53;;;;;;;17.47;70.24;100849.73;124347;1102;102902;-73
2022/10/26 11:13:29;;;;;;;11.60;6.70;;;;;;;17.52;69.83;100846.29;124258;1102;104185;-72
2022/10/26 11:16:07;;;;;;;11.80;6.23;;;;;;;17.55;70.50;100841.02;124273;1100;103444;-73
2022/10/26 11:18:49;;;;;;;12.30;6.50;;;;;;;17.65;70.06;100841.14;124118;1102;104214;-73
2022/10/26 11:21:29;;;;;;;15.97;7.00;;;;;;;17.66;69.32;100853.55;124340;1102;103306;-74
2022/10/26 11:24:19;;;;;;;15.15;7.28;;;;;;;17.53;70.00;100837.47;124334;1102;102825;-75
2022/10/26 11:27:13;;;;;;;13.53;6.40;;;;;;;17.63;69.79;100842.89;124384;1101;118909;-74
2022/10/26 11:30:02;;;;;;;10.48;6.20;;;;;;;17.54;68.36;100851.61;124827;1099;104669;-74
2022/10/26 11:32:56;;;;;;;14.13;6.60;;;;;;;17.51;69.51;100844.49;125173;1099;104231;-76
2022/10/26 11:35:40;;;;;;;12.67;6.70;;;;;;;17.47;69.00;100849.73;124997;1098;104220;-76
2022/10/26 11:38:47;;;;;;;12.87;6.67;;;;;;;17.36;68.99;100868.20;125077;1099;102392;-76
2022/10/26 11:44:21;;;;;;;16.03;7.37;;;;;;;17.17;69.78;100846.72;124869;1099;104089;-76
2022/10/26 11:47:07;;;;;;;18.80;7.50;;;;;;;17.20;69.15;100883.89;125585;1098;104207;-76
2022/10/26 11:49:52;;;;;;;14.87;6.93;;;;;;;17.18;69.83;100864.39;124325;1099;104201;-75
2022/10/26 11:52:30;;;;;;;15.30;6.60;;;;;;;17.22;69.02;100860.92;125039;1102;104179;-76
2022/10/26 11:55:29;;;;;;;13.87;6.80;;;;;;;17.26;69.40;100867.16;125037;1099;103098;-75
2022/10/26 11:58:41;;;;;;;16.87;6.80;;;;;;;17.24;69.55;100853.87;125338;1099;109339;-75
2022/10/26 12:01:23;;;;;;;13.10;6.50;;;;;;;17.35;69.11;100872.59;125613;1099;104182;-75
2022/10/26 12:04:04;;;;;;;13.70;6.83;;;;;;;17.35;68.40;100877.89;126052;1099;104309;-75
2022/10/26 12:06:43;;;;;;;17.27;6.80;;;;;;;17.33;68.31;100874.34;124929;1102;105480;-75
2022/10/26 12:09:21;;;;;;;18.67;6.60;;;;;;;17.31;68.61;100872.52;125565;1099;101918;-75
2022/10/26 12:12:00;;;;;;;15.37;6.53;;;;;;;17.29;68.19;100871.63;124219;1099;104157;-75
2022/10/26 12:14:39;;;;;;;16.23;6.80;;;;;;;17.29;68.58;100877.80;124968;1099;104232;-75
2022/10/26 12:17:21;;;;;;;17.57;7.10;;;;;;;17.32;68.42;100876.97;124633;1099;104328;-75
2022/10/26 12:20:00;;;;;;;16.83;7.27;;;;;;;17.36;68.54;100873.50;124708;1099;101939;-76
2022/10/26 12:22:37;;;;;;;16.03;6.30;;;;;;;17.40;67.20;100875.30;124177;1102;104220;-74
2022/10/26 12:25:20;;;;;;;15.63;6.30;;;;;;;17.47;68.28;100878.92;124613;1098;104232;-75
2022/10/26 12:27:59;;;;;;;17.45;6.00;;;;;;;17.51;67.58;100876.33;124563;1099;104169;-74
2022/10/26 12:30:33;;;;;;;14.33;6.23;;;;;;;17.52;66.46;100880.78;124714;1099;104198;-73
2022/10/26 12:33:04;;;;;;;;;;;;;;;17.54;66.75;100880.80;124718;1099;104216;-74
2022/10/26 12:35:40;;;;;;;15.90;5.43;;;;;;;17.55;67.12;100886.12;124194;1099;102377;-75
2022/10/26 12:38:46;;;;;;;11.40;5.60;;;;;;;17.59;67.61;100887.05;124561;1099;104166;-74
2022/10/26 12:41:25;;;;;;;10.57;5.30;;;;;;;17.61;67.38;100878.25;124634;1099;104301;-74